Aviation Digital Data Service (ADDS)

Output produced by METARs form (1601 UTC 20 March 2019)
found at http://www.aviationweather.gov/metar/data/
 
METAR text: DRZR 201500Z 20008KT CAVOK 40/M01 Q1006
Conditions at: DRZR (ZINDER , NE) observed 1500 UTC 20 March 2019
Temperature: 40.0°C (104°F)
Dewpoint: -1.0°C (30°F) [RH =  8%]
Pressure (altimeter): 29.70 inches Hg (1006.0 mb)
Winds: from the SSW (200 degrees) at 9 MPH (8 knots; 4.1 m/s)
Visibility: 6 or more miles (10+ km)
Ceiling: ceiling and visibility are OK
Clouds: unknown
Weather: no significant weather observed at this time

METAR text: DRZR 201400Z 22006KT CAVOK 41/00 Q1007
Conditions at: DRZR (ZINDER , NE) observed 1400 UTC 20 March 2019
Temperature: 41.0°C (106°F)
Dewpoint: 0.0°C (32°F) [RH =  8%]
Pressure (altimeter): 29.73 inches Hg (1007.0 mb)
Winds: from the SW (220 degrees) at 7 MPH (6 knots; 3.1 m/s)
Visibility: 6 or more miles (10+ km)
Ceiling: ceiling and visibility are OK
Clouds: unknown
Weather: no significant weather observed at this time

METAR text: DRZR 201300Z 16008KT CAVOK 40/M02 Q1008
Conditions at: DRZR (ZINDER , NE) observed 1300 UTC 20 March 2019
Temperature: 40.0°C (104°F)
Dewpoint: -2.0°C (28°F) [RH =  7%]
Pressure (altimeter): 29.76 inches Hg (1008.0 mb)
Winds: from the SSE (160 degrees) at 9 MPH (8 knots; 4.1 m/s)
Visibility: 6 or more miles (10+ km)
Ceiling: ceiling and visibility are OK
Clouds: unknown
Weather: no significant weather observed at this time

METAR text: DRZR 201100Z 16010KT CAVOK 39/M02 Q1010
Conditions at: DRZR (ZINDER , NE) observed 1100 UTC 20 March 2019
Temperature: 39.0°C (102°F)
Dewpoint: -2.0°C (28°F) [RH =  8%]
Pressure (altimeter): 29.82 inches Hg (1010.0 mb)
Winds: from the SSE (160 degrees) at 12 MPH (10 knots; 5.1 m/s)
Visibility: 6 or more miles (10+ km)
Ceiling: ceiling and visibility are OK
Clouds: unknown
Weather: no significant weather observed at this time

METAR text: DRZR 201000Z 14010KT CAVOK 37/M02 Q1010
Conditions at: DRZR (ZINDER , NE) observed 1000 UTC 20 March 2019
Temperature: 37.0°C (99°F)
Dewpoint: -2.0°C (28°F) [RH =  8%]
Pressure (altimeter): 29.82 inches Hg (1010.0 mb)
Winds: from the SE (140 degrees) at 12 MPH (10 knots; 5.1 m/s)
Visibility: 6 or more miles (10+ km)
Ceiling: ceiling and visibility are OK
Clouds: unknown
Weather: no significant weather observed at this time

METAR text: DRZR 200900Z 12008KT CAVOK 35/M002 Q1011
Conditions at: DRZR (ZINDER , NE) observed 0900 UTC 20 March 2019
Temperature: missing
Dewpoint: missing
Pressure (altimeter): 29.85 inches Hg (1011.0 mb)
Winds: from the ESE (120 degrees) at 9 MPH (8 knots; 4.1 m/s)
Visibility: 6 or more miles (10+ km)
Ceiling: ceiling and visibility are OK
Clouds: unknown
Weather: no significant weather observed at this time

METAR text: DRZR 200800Z 12008KT CAVOK 28/06 Q1011
Conditions at: DRZR (ZINDER , NE) observed 0800 UTC 20 March 2019
Temperature: 28.0°C (82°F)
Dewpoint: 6.0°C (43°F) [RH = 25%]
Pressure (altimeter): 29.85 inches Hg (1011.0 mb)
Winds: from the ESE (120 degrees) at 9 MPH (8 knots; 4.1 m/s)
Visibility: 6 or more miles (10+ km)
Ceiling: ceiling and visibility are OK
Clouds: unknown
Weather: no significant weather observed at this time

METAR text: DRZR 200700Z 00000KT 8000 NSC 25/06 Q1011
Conditions at: DRZR (ZINDER , NE) observed 0700 UTC 20 March 2019
Temperature: 25.0°C (77°F)
Dewpoint: 6.0°C (43°F) [RH = 30%]
Pressure (altimeter): 29.85 inches Hg (1011.0 mb)
Winds: calm
Visibility: 5 miles ( 8 km)
Ceiling: at least 12,000 feet AGL
Clouds: sky clear below 12,000 feet AGL
Weather: no significant weather observed at this time

METAR text: DRZR 200600Z 00000KT CAVOK 23/04 Q1010
Conditions at: DRZR (ZINDER , NE) observed 0600 UTC 20 March 2019
Temperature: 23.0°C (73°F)
Dewpoint: 4.0°C (39°F) [RH = 29%]
Pressure (altimeter): 29.82 inches Hg (1010.0 mb)
Winds: calm
Visibility: 6 or more miles (10+ km)
Ceiling: ceiling and visibility are OK
Clouds: unknown
Weather: no significant weather observed at this time

METAR text: DRZR 200500Z 00000KT 8000 NSC 23/04 Q1009
Conditions at: DRZR (ZINDER , NE) observed 0500 UTC 20 March 2019
Temperature: 23.0°C (73°F)
Dewpoint: 4.0°C (39°F) [RH = 29%]
Pressure (altimeter): 29.79 inches Hg (1009.0 mb)
Winds: calm
Visibility: 5 miles ( 8 km)
Ceiling: at least 12,000 feet AGL
Clouds: sky clear below 12,000 feet AGL
Weather: no significant weather observed at this time

METAR text: DRZR 200400Z 00000KT 6000 NSC 24/04 Q1009
Conditions at: DRZR (ZINDER , NE) observed 0400 UTC 20 March 2019
Temperature: 24.0°C (75°F)
Dewpoint: 4.0°C (39°F) [RH = 27%]
Pressure (altimeter): 29.79 inches Hg (1009.0 mb)
Winds: calm
Visibility: 4 miles ( 6 km)
Ceiling: at least 12,000 feet AGL
Clouds: sky clear below 12,000 feet AGL
Weather: no significant weather observed at this time

METAR text: DRZR 200300Z 00000KT 6000 NSC 25/04 Q1009
Conditions at: DRZR (ZINDER , NE) observed 0300 UTC 20 March 2019
Temperature: 25.0°C (77°F)
Dewpoint: 4.0°C (39°F) [RH = 26%]
Pressure (altimeter): 29.79 inches Hg (1009.0 mb)
Winds: calm
Visibility: 4 miles ( 6 km)
Ceiling: at least 12,000 feet AGL
Clouds: sky clear below 12,000 feet AGL
Weather: no significant weather observed at this time

METAR text: DRZR 191800Z 00000KT CAVOK 34/04 Q1008
Conditions at: DRZR (ZINDER , NE) observed 1800 UTC 19 March 2019
Temperature: 34.0°C (93°F)
Dewpoint: 4.0°C (39°F) [RH = 15%]
Pressure (altimeter): 29.76 inches Hg (1008.0 mb)
Winds: calm
Visibility: 6 or more miles (10+ km)
Ceiling: ceiling and visibility are OK
Clouds: unknown
Weather: no significant weather observed at this time

METAR text: DRZR 191600Z 16006KT CAVOK 39/M02 Q1007
Conditions at: DRZR (ZINDER , NE) observed 1600 UTC 19 March 2019
Temperature: 39.0°C (102°F)
Dewpoint: -2.0°C (28°F) [RH =  8%]
Pressure (altimeter): 29.73 inches Hg (1007.0 mb)
Winds: from the SSE (160 degrees) at 7 MPH (6 knots; 3.1 m/s)
Visibility: 6 or more miles (10+ km)
Ceiling: ceiling and visibility are OK
Clouds: unknown
Weather: no significant weather observed at this time

METAR text: DRZR 191500Z 18006KT CAVOK 38/M03 Q1007
Conditions at: DRZR (ZINDER , NE) observed 1500 UTC 19 March 2019
Temperature: 38.0°C (100°F)
Dewpoint: -3.0°C (27°F) [RH =  7%]
Pressure (altimeter): 29.73 inches Hg (1007.0 mb)
Winds: from the S (180 degrees) at 7 MPH (6 knots; 3.1 m/s)
Visibility: 6 or more miles (10+ km)
Ceiling: ceiling and visibility are OK
Clouds: unknown
Weather: no significant weather observed at this time

METAR text: DRZR 191400Z 16008KT CAVOK 38/M02 Q1010
Conditions at: DRZR (ZINDER , NE) observed 1400 UTC 19 March 2019
Temperature: 38.0°C (100°F)
Dewpoint: -2.0°C (28°F) [RH =  8%]
Pressure (altimeter): 29.82 inches Hg (1010.0 mb)
Winds: from the SSE (160 degrees) at 9 MPH (8 knots; 4.1 m/s)
Visibility: 6 or more miles (10+ km)
Ceiling: ceiling and visibility are OK
Clouds: unknown
Weather: no significant weather observed at this time

METAR text: DRZR 191300Z 16010KT CAVOK 39/M08 Q1010
Conditions at: DRZR (ZINDER , NE) observed 1300 UTC 19 March 2019
Temperature: 39.0°C (102°F)
Dewpoint: -8.0°C (18°F) [RH =  5%]
Pressure (altimeter): 29.82 inches Hg (1010.0 mb)
Winds: from the SSE (160 degrees) at 12 MPH (10 knots; 5.1 m/s)
Visibility: 6 or more miles (10+ km)
Ceiling: ceiling and visibility are OK
Clouds: unknown
Weather: no significant weather observed at this time

METAR text: DRZR 191200Z 14012KT 8000 NSC 38/M08 Q1010
Conditions at: DRZR (ZINDER , NE) observed 1200 UTC 19 March 2019
Temperature: 38.0°C (100°F)
Dewpoint: -8.0°C (18°F) [RH =  5%]
Pressure (altimeter): 29.82 inches Hg (1010.0 mb)
Winds: from the SE (140 degrees) at 14 MPH (12 knots; 6.2 m/s)
Visibility: 5 miles ( 8 km)
Ceiling: at least 12,000 feet AGL
Clouds: sky clear below 12,000 feet AGL
Weather: no significant weather observed at this time

METAR text: DRZR 191100Z 14014KT 6000 NSC 37/M07 Q1012
Conditions at: DRZR (ZINDER , NE) observed 1100 UTC 19 March 2019
Temperature: 37.0°C (99°F)
Dewpoint: -7.0°C (19°F) [RH =  6%]
Pressure (altimeter): 29.88 inches Hg (1012.0 mb)
Winds: from the SE (140 degrees) at 16 MPH (14 knots; 7.2 m/s)
Visibility: 4 miles ( 6 km)
Ceiling: at least 12,000 feet AGL
Clouds: sky clear below 12,000 feet AGL
Weather: no significant weather observed at this time

METAR text: DRZR 191000Z 14018KT 6000 BLSA NSC 36/M07 Q1013
Conditions at: DRZR (ZINDER , NE) observed 1000 UTC 19 March 2019
Temperature: 36.0°C (97°F)
Dewpoint: -7.0°C (19°F) [RH =  6%]
Pressure (altimeter): 29.91 inches Hg (1013.0 mb)
Winds: from the SE (140 degrees) at 21 MPH (18 knots; 9.3 m/s)
Visibility: 4 miles ( 6 km)
Ceiling: at least 12,000 feet AGL
Clouds: sky clear below 12,000 feet AGL
Weather: BLSA  (blowing sand)

METAR text: DRZR 190900Z 12014KT CAVOK 34/M09 Q1013
Conditions at: DRZR (ZINDER , NE) observed 0900 UTC 19 March 2019
Temperature: 34.0°C (93°F)
Dewpoint: -9.0°C (16°F) [RH =  6%]
Pressure (altimeter): 29.91 inches Hg (1013.0 mb)
Winds: from the ESE (120 degrees) at 16 MPH (14 knots; 7.2 m/s)
Visibility: 6 or more miles (10+ km)
Ceiling: ceiling and visibility are OK
Clouds: unknown
Weather: no significant weather observed at this time

METAR text: DRZR 190800Z 12010KT CAVOK 31/M07 Q1013
Conditions at: DRZR (ZINDER , NE) observed 0800 UTC 19 March 2019
Temperature: 31.0°C (88°F)
Dewpoint: -7.0°C (19°F) [RH =  8%]
Pressure (altimeter): 29.91 inches Hg (1013.0 mb)
Winds: from the ESE (120 degrees) at 12 MPH (10 knots; 5.1 m/s)
Visibility: 6 or more miles (10+ km)
Ceiling: ceiling and visibility are OK
Clouds: unknown
Weather: no significant weather observed at this time

METAR text: DRZR 190700Z 10008KT 8000 NSC 27/M06 Q1012
Conditions at: DRZR (ZINDER , NE) observed 0700 UTC 19 March 2019
Temperature: 27.0°C (81°F)
Dewpoint: -6.0°C (21°F) [RH = 11%]
Pressure (altimeter): 29.88 inches Hg (1012.0 mb)
Winds: from the E (100 degrees) at 9 MPH (8 knots; 4.1 m/s)
Visibility: 5 miles ( 8 km)
Ceiling: at least 12,000 feet AGL
Clouds: sky clear below 12,000 feet AGL
Weather: no significant weather observed at this time

METAR text: DRZR 190600Z 09006KT 8000 NSC 25/M06 Q1011
Conditions at: DRZR (ZINDER , NE) observed 0600 UTC 19 March 2019
Temperature: 25.0°C (77°F)
Dewpoint: -6.0°C (21°F) [RH = 12%]
Pressure (altimeter): 29.85 inches Hg (1011.0 mb)
Winds: from the E (90 degrees) at 7 MPH (6 knots; 3.1 m/s)
Visibility: 5 miles ( 8 km)
Ceiling: at least 12,000 feet AGL
Clouds: sky clear below 12,000 feet AGL
Weather: no significant weather observed at this time

Forecast for: DRZR (ZINDER , NE)
Text: TAF DRZR 201100Z 2012/2112 18008KT CAVOK
Forecast period: 1200 UTC 20 March 2019 to 1200 UTC 21 March 2019
Forecast type: FROM: standard forecast or significant change
Winds: from the S (180 degrees) at 9 MPH (8 knots; 4.1 m/s)
Visibility: 6 or more miles 10+ km)
Ceiling: unknown
Clouds: missing
Weather: NSW  (no significant weather)